sensor_id;sensor_type;location;lat;lon;timestamp;temperature;humidity
9446;DHT22;4761;49.490;10.908;2023-04-24T00:01:39;19.20;55.80
9446;DHT22;4761;49.490;10.908;2023-04-24T00:04:05;19.10;55.80
9446;DHT22;4761;49.490;10.908;2023-04-24T00:06:32;19.20;55.90
9446;DHT22;4761;49.490;10.908;2023-04-24T00:09:02;19.10;55.70
9446;DHT22;4761;49.490;10.908;2023-04-24T00:11:29;19.20;55.70
9446;DHT22;4761;49.490;10.908;2023-04-24T00:13:55;19.20;55.70
9446;DHT22;4761;49.490;10.908;2023-04-24T00:16:21;19.20;55.60
9446;DHT22;4761;49.490;10.908;2023-04-24T00:18:46;19.20;55.50
9446;DHT22;4761;49.490;10.908;2023-04-24T00:21:13;19.20;55.40
9446;DHT22;4761;49.490;10.908;2023-04-24T00:23:39;19.20;55.40
9446;DHT22;4761;49.490;10.908;2023-04-24T00:26:04;19.20;55.40
9446;DHT22;4761;49.490;10.908;2023-04-24T00:28:30;19.20;55.40
9446;DHT22;4761;49.490;10.908;2023-04-24T00:30:55;19.20;55.30
9446;DHT22;4761;49.490;10.908;2023-04-24T00:33:21;19.30;55.80
9446;DHT22;4761;49.490;10.908;2023-04-24T00:35:46;19.30;55.40
9446;DHT22;4761;49.490;10.908;2023-04-24T00:38:12;19.20;55.40
9446;DHT22;4761;49.490;10.908;2023-04-24T00:40:37;19.30;55.50
9446;DHT22;4761;49.490;10.908;2023-04-24T00:43:03;19.20;55.40
9446;DHT22;4761;49.490;10.908;2023-04-24T00:45:29;19.20;56.00
9446;DHT22;4761;49.490;10.908;2023-04-24T00:47:56;19.20;55.50
9446;DHT22;4761;49.490;10.908;2023-04-24T00:50:23;19.20;55.50
9446;DHT22;4761;49.490;10.908;2023-04-24T00:52:49;19.20;55.50
9446;DHT22;4761;49.490;10.908;2023-04-24T00:55:16;19.20;55.50
9446;DHT22;4761;49.490;10.908;2023-04-24T00:57:42;19.30;55.50
9446;DHT22;4761;49.490;10.908;2023-04-24T01:00:08;19.20;55.40
9446;DHT22;4761;49.490;10.908;2023-04-24T01:02:41;19.20;55.50
9446;DHT22;4761;49.490;10.908;2023-04-24T01:05:14;19.20;55.40
9446;DHT22;4761;49.490;10.908;2023-04-24T01:07:41;19.20;55.40
9446;DHT22;4761;49.490;10.908;2023-04-24T01:10:09;19.20;55.40
9446;DHT22;4761;49.490;10.908;2023-04-24T01:12:35;19.20;55.40
9446;DHT22;4761;49.490;10.908;2023-04-24T01:15:01;19.20;55.50
9446;DHT22;4761;49.490;10.908;2023-04-24T01:17:26;19.20;55.40
9446;DHT22;4761;49.490;10.908;2023-04-24T01:19:52;19.20;55.50
9446;DHT22;4761;49.490;10.908;2023-04-24T01:22:22;19.20;55.50
9446;DHT22;4761;49.490;10.908;2023-04-24T01:24:48;19.20;55.50
9446;DHT22;4761;49.490;10.908;2023-04-24T01:27:14;19.20;55.40
9446;DHT22;4761;49.490;10.908;2023-04-24T01:29:40;19.20;55.60
9446;DHT22;4761;49.490;10.908;2023-04-24T01:32:06;19.20;55.50
9446;DHT22;4761;49.490;10.908;2023-04-24T01:34:32;19.20;55.50
9446;DHT22;4761;49.490;10.908;2023-04-24T01:36:57;19.20;55.50
9446;DHT22;4761;49.490;10.908;2023-04-24T01:39:23;19.20;55.50
9446;DHT22;4761;49.490;10.908;2023-04-24T01:41:51;19.20;55.50
9446;DHT22;4761;49.490;10.908;2023-04-24T01:44:17;19.20;55.40
9446;DHT22;4761;49.490;10.908;2023-04-24T01:46:43;19.20;55.40
9446;DHT22;4761;49.490;10.908;2023-04-24T01:49:08;19.20;55.40
9446;DHT22;4761;49.490;10.908;2023-04-24T01:51:34;19.20;55.40
9446;DHT22;4761;49.490;10.908;2023-04-24T01:54:00;19.10;55.30
9446;DHT22;4761;49.490;10.908;2023-04-24T01:56:25;19.10;55.30
9446;DHT22;4761;49.490;10.908;2023-04-24T01:58:54;19.20;55.40
9446;DHT22;4761;49.490;10.908;2023-04-24T02:01:20;19.20;55.40
9446;DHT22;4761;49.490;10.908;2023-04-24T02:03:46;19.20;55.40
9446;DHT22;4761;49.490;10.908;2023-04-24T02:06:12;19.10;55.30
9446;DHT22;4761;49.490;10.908;2023-04-24T02:08:37;19.10;55.40
9446;DHT22;4761;49.490;10.908;2023-04-24T02:11:03;19.10;55.40
9446;DHT22;4761;49.490;10.908;2023-04-24T02:13:28;19.10;55.40
9446;DHT22;4761;49.490;10.908;2023-04-24T02:15:54;19.10;55.30
9446;DHT22;4761;49.490;10.908;2023-04-24T02:18:20;19.10;55.20
9446;DHT22;4761;49.490;10.908;2023-04-24T02:20:46;19.20;55.30
9446;DHT22;4761;49.490;10.908;2023-04-24T02:23:11;19.20;55.30
9446;DHT22;4761;49.490;10.908;2023-04-24T02:25:38;19.20;55.20
9446;DHT22;4761;49.490;10.908;2023-04-24T02:28:04;19.20;55.20
9446;DHT22;4761;49.490;10.908;2023-04-24T02:30:29;19.10;55.20
9446;DHT22;4761;49.490;10.908;2023-04-24T02:32:55;19.10;55.10
9446;DHT22;4761;49.490;10.908;2023-04-24T02:35:21;19.10;55.10
9446;DHT22;4761;49.490;10.908;2023-04-24T02:37:46;19.10;55.10
9446;DHT22;4761;49.490;10.908;2023-04-24T02:40:12;19.10;55.10
9446;DHT22;4761;49.490;10.908;2023-04-24T02:42:37;19.20;55.20
9446;DHT22;4761;49.490;10.908;2023-04-24T02:45:03;19.10;55.20
9446;DHT22;4761;49.490;10.908;2023-04-24T02:47:29;19.10;55.30
9446;DHT22;4761;49.490;10.908;2023-04-24T02:49:54;19.10;55.30
9446;DHT22;4761;49.490;10.908;2023-04-24T02:52:20;19.10;55.20
9446;DHT22;4761;49.490;10.908;2023-04-24T02:54:45;19.10;55.20
9446;DHT22;4761;49.490;10.908;2023-04-24T02:57:11;19.10;55.10
9446;DHT22;4761;49.490;10.908;2023-04-24T02:59:36;19.20;55.10
9446;DHT22;4761;49.490;10.908;2023-04-24T03:02:02;19.20;55.10
9446;DHT22;4761;49.490;10.908;2023-04-24T03:04:27;19.10;55.10
9446;DHT22;4761;49.490;10.908;2023-04-24T03:06:53;19.10;55.10
9446;DHT22;4761;49.490;10.908;2023-04-24T03:09:20;19.10;55.00
9446;DHT22;4761;49.490;10.908;2023-04-24T03:11:46;19.10;55.10
9446;DHT22;4761;49.490;10.908;2023-04-24T03:14:11;19.10;55.10
9446;DHT22;4761;49.490;10.908;2023-04-24T03:16:37;19.10;55.10
9446;DHT22;4761;49.490;10.908;2023-04-24T03:19:02;19.10;55.10
9446;DHT22;4761;49.490;10.908;2023-04-24T03:21:28;19.10;55.10
9446;DHT22;4761;49.490;10.908;2023-04-24T03:23:54;19.10;55.10
9446;DHT22;4761;49.490;10.908;2023-04-24T03:26:20;19.10;55.10
9446;DHT22;4761;49.490;10.908;2023-04-24T03:28:45;19.10;55.10
9446;DHT22;4761;49.490;10.908;2023-04-24T03:31:11;19.10;55.00
9446;DHT22;4761;49.490;10.908;2023-04-24T03:33:36;19.10;54.90
9446;DHT22;4761;49.490;10.908;2023-04-24T03:36:02;19.10;55.50
9446;DHT22;4761;49.490;10.908;2023-04-24T03:38:27;19.10;54.90
9446;DHT22;4761;49.490;10.908;2023-04-24T03:40:53;19.10;54.90
9446;DHT22;4761;49.490;10.908;2023-04-24T03:43:19;19.10;54.90
9446;DHT22;4761;49.490;10.908;2023-04-24T03:45:44;19.10;54.90
9446;DHT22;4761;49.490;10.908;2023-04-24T03:48:10;19.00;54.80
9446;DHT22;4761;49.490;10.908;2023-04-24T03:50:36;19.00;54.80
9446;DHT22;4761;49.490;10.908;2023-04-24T03:53:01;19.00;54.80
9446;DHT22;4761;49.490;10.908;2023-04-24T03:55:27;19.00;54.80
9446;DHT22;4761;49.490;10.908;2023-04-24T03:57:52;19.00;54.80
9446;DHT22;4761;49.490;10.908;2023-04-24T04:00:18;19.00;54.80
9446;DHT22;4761;49.490;10.908;2023-04-24T04:02:43;19.00;54.80
9446;DHT22;4761;49.490;10.908;2023-04-24T04:05:09;19.00;54.80
9446;DHT22;4761;49.490;10.908;2023-04-24T04:07:35;19.00;54.80
9446;DHT22;4761;49.490;10.908;2023-04-24T04:10:00;19.00;54.80
9446;DHT22;4761;49.490;10.908;2023-04-24T04:12:26;19.00;54.80
9446;DHT22;4761;49.490;10.908;2023-04-24T04:14:51;19.00;54.70
9446;DHT22;4761;49.490;10.908;2023-04-24T04:17:17;19.10;54.80
9446;DHT22;4761;49.490;10.908;2023-04-24T04:19:43;19.10;54.80
9446;DHT22;4761;49.490;10.908;2023-04-24T04:22:08;19.10;54.70
9446;DHT22;4761;49.490;10.908;2023-04-24T04:24:34;19.00;54.60
9446;DHT22;4761;49.490;10.908;2023-04-24T04:27:03;19.00;54.70
9446;DHT22;4761;49.490;10.908;2023-04-24T04:29:30;19.00;54.70
9446;DHT22;4761;49.490;10.908;2023-04-24T04:31:56;19.00;54.70
9446;DHT22;4761;49.490;10.908;2023-04-24T04:34:22;19.00;54.70
9446;DHT22;4761;49.490;10.908;2023-04-24T04:36:48;19.00;55.30
9446;DHT22;4761;49.490;10.908;2023-04-24T04:39:14;19.00;54.60
9446;DHT22;4761;49.490;10.908;2023-04-24T04:41:44;19.00;54.70
9446;DHT22;4761;49.490;10.908;2023-04-24T04:44:09;19.00;54.60
9446;DHT22;4761;49.490;10.908;2023-04-24T04:46:35;19.00;54.60
9446;DHT22;4761;49.490;10.908;2023-04-24T04:49:02;19.00;54.60
9446;DHT22;4761;49.490;10.908;2023-04-24T04:51:28;19.00;54.50
9446;DHT22;4761;49.490;10.908;2023-04-24T04:53:54;19.00;54.50
9446;DHT22;4761;49.490;10.908;2023-04-24T04:56:20;19.00;54.50
9446;DHT22;4761;49.490;10.908;2023-04-24T04:58:45;19.00;54.60
9446;DHT22;4761;49.490;10.908;2023-04-24T05:01:11;19.00;54.60
9446;DHT22;4761;49.490;10.908;2023-04-24T05:03:36;19.00;54.50
9446;DHT22;4761;49.490;10.908;2023-04-24T05:06:02;19.00;54.30
9446;DHT22;4761;49.490;10.908;2023-04-24T05:08:28;19.10;54.30
9446;DHT22;4761;49.490;10.908;2023-04-24T05:10:54;19.10;54.20
9446;DHT22;4761;49.490;10.908;2023-04-24T05:13:20;19.20;54.70
9446;DHT22;4761;49.490;10.908;2023-04-24T05:15:46;19.20;54.00
9446;DHT22;4761;49.490;10.908;2023-04-24T05:18:12;19.20;54.00
9446;DHT22;4761;49.490;10.908;2023-04-24T05:20:37;19.20;54.00
9446;DHT22;4761;49.490;10.908;2023-04-24T05:23:03;19.10;53.90
9446;DHT22;4761;49.490;10.908;2023-04-24T05:25:28;19.10;54.00
9446;DHT22;4761;49.490;10.908;2023-04-24T05:27:54;19.20;54.00
9446;DHT22;4761;49.490;10.908;2023-04-24T05:30:20;19.10;54.00
9446;DHT22;4761;49.490;10.908;2023-04-24T05:32:45;19.20;54.10
9446;DHT22;4761;49.490;10.908;2023-04-24T05:35:11;19.20;54.10
9446;DHT22;4761;49.490;10.908;2023-04-24T05:37:37;19.10;54.00
9446;DHT22;4761;49.490;10.908;2023-04-24T05:40:03;19.10;54.10
9446;DHT22;4761;49.490;10.908;2023-04-24T05:42:30;19.10;54.10
9446;DHT22;4761;49.490;10.908;2023-04-24T05:44:56;19.10;54.20
9446;DHT22;4761;49.490;10.908;2023-04-24T05:47:21;19.10;54.20
9446;DHT22;4761;49.490;10.908;2023-04-24T05:49:47;19.10;54.20
9446;DHT22;4761;49.490;10.908;2023-04-24T05:52:13;19.10;54.00
9446;DHT22;4761;49.490;10.908;2023-04-24T05:54:38;19.20;54.10
9446;DHT22;4761;49.490;10.908;2023-04-24T05:57:04;19.20;54.10
9446;DHT22;4761;49.490;10.908;2023-04-24T05:59:33;19.20;54.10
9446;DHT22;4761;49.490;10.908;2023-04-24T06:01:59;19.20;54.10
9446;DHT22;4761;49.490;10.908;2023-04-24T06:04:25;19.10;54.00
9446;DHT22;4761;49.490;10.908;2023-04-24T06:06:50;19.20;54.20
9446;DHT22;4761;49.490;10.908;2023-04-24T06:09:21;19.10;54.10
9446;DHT22;4761;49.490;10.908;2023-04-24T06:11:47;19.10;54.10
9446;DHT22;4761;49.490;10.908;2023-04-24T06:14:13;19.20;54.20
9446;DHT22;4761;49.490;10.908;2023-04-24T06:16:40;19.10;54.00
9446;DHT22;4761;49.490;10.908;2023-04-24T06:19:05;19.20;54.10
9446;DHT22;4761;49.490;10.908;2023-04-24T06:21:31;19.10;54.10
9446;DHT22;4761;49.490;10.908;2023-04-24T06:23:56;19.10;54.10
9446;DHT22;4761;49.490;10.908;2023-04-24T06:26:23;19.10;54.10
9446;DHT22;4761;49.490;10.908;2023-04-24T06:28:50;19.10;54.10
9446;DHT22;4761;49.490;10.908;2023-04-24T06:31:16;19.10;54.10
9446;DHT22;4761;49.490;10.908;2023-04-24T06:33:43;19.10;54.10
9446;DHT22;4761;49.490;10.908;2023-04-24T06:36:08;19.10;54.10
9446;DHT22;4761;49.490;10.908;2023-04-24T06:38:34;19.10;54.10
9446;DHT22;4761;49.490;10.908;2023-04-24T06:40:59;19.10;54.10
9446;DHT22;4761;49.490;10.908;2023-04-24T06:43:25;19.10;54.10
9446;DHT22;4761;49.490;10.908;2023-04-24T06:45:51;19.10;54.20
9446;DHT22;4761;49.490;10.908;2023-04-24T06:48:16;19.10;54.80
9446;DHT22;4761;49.490;10.908;2023-04-24T06:50:42;19.10;54.20
9446;DHT22;4761;49.490;10.908;2023-04-24T06:53:07;19.10;54.20
9446;DHT22;4761;49.490;10.908;2023-04-24T06:55:33;19.10;54.20
9446;DHT22;4761;49.490;10.908;2023-04-24T06:58:00;19.10;54.20
9446;DHT22;4761;49.490;10.908;2023-04-24T07:00:26;19.10;54.20
9446;DHT22;4761;49.490;10.908;2023-04-24T07:02:51;19.10;54.20
9446;DHT22;4761;49.490;10.908;2023-04-24T07:05:17;19.10;54.20
9446;DHT22;4761;49.490;10.908;2023-04-24T07:07:46;19.00;54.10
9446;DHT22;4761;49.490;10.908;2023-04-24T07:10:12;19.00;54.20
9446;DHT22;4761;49.490;10.908;2023-04-24T07:12:38;19.00;54.20
9446;DHT22;4761;49.490;10.908;2023-04-24T07:15:05;19.00;54.20
9446;DHT22;4761;49.490;10.908;2023-04-24T07:17:31;19.00;54.20
9446;DHT22;4761;49.490;10.908;2023-04-24T07:19:56;19.00;54.20
9446;DHT22;4761;49.490;10.908;2023-04-24T07:22:22;19.10;54.20
9446;DHT22;4761;49.490;10.908;2023-04-24T07:24:48;19.00;54.20
9446;DHT22;4761;49.490;10.908;2023-04-24T07:27:13;19.00;54.10
9446;DHT22;4761;49.490;10.908;2023-04-24T07:29:40;19.10;54.30
9446;DHT22;4761;49.490;10.908;2023-04-24T07:32:05;19.00;54.20
9446;DHT22;4761;49.490;10.908;2023-04-24T07:34:31;19.00;54.20
9446;DHT22;4761;49.490;10.908;2023-04-24T07:36:57;19.10;54.30
9446;DHT22;4761;49.490;10.908;2023-04-24T07:39:22;19.10;54.20
9446;DHT22;4761;49.490;10.908;2023-04-24T07:41:48;19.10;54.20
9446;DHT22;4761;49.490;10.908;2023-04-24T07:44:13;19.10;54.20
9446;DHT22;4761;49.490;10.908;2023-04-24T07:46:40;19.10;54.10
9446;DHT22;4761;49.490;10.908;2023-04-24T07:49:05;19.10;54.20
9446;DHT22;4761;49.490;10.908;2023-04-24T07:51:31;19.10;54.20
9446;DHT22;4761;49.490;10.908;2023-04-24T07:53:58;19.10;54.30
9446;DHT22;4761;49.490;10.908;2023-04-24T07:56:24;19.10;54.30
9446;DHT22;4761;49.490;10.908;2023-04-24T07:58:50;19.10;54.30
9446;DHT22;4761;49.490;10.908;2023-04-24T08:01:16;19.10;54.30
9446;DHT22;4761;49.490;10.908;2023-04-24T08:03:41;19.20;54.40
9446;DHT22;4761;49.490;10.908;2023-04-24T08:06:07;19.10;54.40
9446;DHT22;4761;49.490;10.908;2023-04-24T08:08:32;19.20;54.40
9446;DHT22;4761;49.490;10.908;2023-04-24T08:10:58;19.20;54.40
9446;DHT22;4761;49.490;10.908;2023-04-24T08:13:24;19.20;54.30
9446;DHT22;4761;49.490;10.908;2023-04-24T08:15:49;19.20;54.30
9446;DHT22;4761;49.490;10.908;2023-04-24T08:18:15;19.20;54.30
9446;DHT22;4761;49.490;10.908;2023-04-24T08:20:41;19.10;54.20
9446;DHT22;4761;49.490;10.908;2023-04-24T08:23:06;19.20;54.20
9446;DHT22;4761;49.490;10.908;2023-04-24T08:25:32;19.20;54.20
9446;DHT22;4761;49.490;10.908;2023-04-24T08:28:01;19.20;54.20
9446;DHT22;4761;49.490;10.908;2023-04-24T08:30:27;19.20;54.20
9446;DHT22;4761;49.490;10.908;2023-04-24T08:32:52;19.20;54.10
9446;DHT22;4761;49.490;10.908;2023-04-24T08:35:18;19.10;54.00
9446;DHT22;4761;49.490;10.908;2023-04-24T08:37:44;19.20;54.00
9446;DHT22;4761;49.490;10.908;2023-04-24T08:40:14;19.10;53.90
9446;DHT22;4761;49.490;10.908;2023-04-24T08:42:44;19.20;53.90
9446;DHT22;4761;49.490;10.908;2023-04-24T08:45:11;19.20;53.80
9446;DHT22;4761;49.490;10.908;2023-04-24T08:47:41;19.20;53.80
9446;DHT22;4761;49.490;10.908;2023-04-24T08:50:08;19.20;53.70
9446;DHT22;4761;49.490;10.908;2023-04-24T08:52:34;19.20;53.70
9446;DHT22;4761;49.490;10.908;2023-04-24T08:55:01;19.20;53.60
9446;DHT22;4761;49.490;10.908;2023-04-24T08:57:28;19.20;53.60
9446;DHT22;4761;49.490;10.908;2023-04-24T08:59:54;19.20;53.50
9446;DHT22;4761;49.490;10.908;2023-04-24T09:02:21;19.20;53.50
9446;DHT22;4761;49.490;10.908;2023-04-24T09:04:48;19.20;53.50
9446;DHT22;4761;49.490;10.908;2023-04-24T09:07:16;19.20;53.50
9446;DHT22;4761;49.490;10.908;2023-04-24T09:09:43;19.10;53.40
9446;DHT22;4761;49.490;10.908;2023-04-24T09:12:09;19.10;53.40
9446;DHT22;4761;49.490;10.908;2023-04-24T09:14:36;19.20;53.60
9446;DHT22;4761;49.490;10.908;2023-04-24T09:17:06;19.10;53.50
9446;DHT22;4761;49.490;10.908;2023-04-24T09:19:31;19.10;53.60
9446;DHT22;4761;49.490;10.908;2023-04-24T09:21:57;19.10;53.70
9446;DHT22;4761;49.490;10.908;2023-04-24T09:24:22;19.20;53.70
9446;DHT22;4761;49.490;10.908;2023-04-24T09:26:49;19.20;53.50
9446;DHT22;4761;49.490;10.908;2023-04-24T09:29:20;19.30;53.50
9446;DHT22;4761;49.490;10.908;2023-04-24T09:31:46;19.30;53.40
9446;DHT22;4761;49.490;10.908;2023-04-24T09:34:12;19.30;53.20
9446;DHT22;4761;49.490;10.908;2023-04-24T09:36:39;19.30;53.10
9446;DHT22;4761;49.490;10.908;2023-04-24T09:39:07;19.30;53.10
9446;DHT22;4761;49.490;10.908;2023-04-24T09:41:33;19.30;53.10
9446;DHT22;4761;49.490;10.908;2023-04-24T09:46:42;19.30;53.20
9446;DHT22;4761;49.490;10.908;2023-04-24T09:49:10;19.30;53.20
9446;DHT22;4761;49.490;10.908;2023-04-24T09:51:37;19.30;53.30
9446;DHT22;4761;49.490;10.908;2023-04-24T09:54:04;19.30;53.20
9446;DHT22;4761;49.490;10.908;2023-04-24T09:56:32;19.30;53.20
9446;DHT22;4761;49.490;10.908;2023-04-24T09:59:07;19.30;53.20
9446;DHT22;4761;49.490;10.908;2023-04-24T10:01:33;19.30;53.10
9446;DHT22;4761;49.490;10.908;2023-04-24T10:03:59;19.30;53.00
9446;DHT22;4761;49.490;10.908;2023-04-24T10:06:33;19.30;53.00
9446;DHT22;4761;49.490;10.908;2023-04-24T10:09:00;19.40;53.10
9446;DHT22;4761;49.490;10.908;2023-04-24T10:11:27;19.40;53.10
9446;DHT22;4761;49.490;10.908;2023-04-24T10:13:53;19.30;53.10
9446;DHT22;4761;49.490;10.908;2023-04-24T10:16:20;19.40;53.00
9446;DHT22;4761;49.490;10.908;2023-04-24T10:18:48;19.40;52.90
9446;DHT22;4761;49.490;10.908;2023-04-24T10:21:14;19.40;52.80
9446;DHT22;4761;49.490;10.908;2023-04-24T10:23:41;19.40;52.70
9446;DHT22;4761;49.490;10.908;2023-04-24T10:26:09;19.30;52.50
9446;DHT22;4761;49.490;10.908;2023-04-24T10:28:36;19.30;52.40
9446;DHT22;4761;49.490;10.908;2023-04-24T10:31:02;19.30;52.40
9446;DHT22;4761;49.490;10.908;2023-04-24T10:33:29;19.30;52.30
9446;DHT22;4761;49.490;10.908;2023-04-24T10:35:56;19.30;52.40
9446;DHT22;4761;49.490;10.908;2023-04-24T10:38:25;19.30;52.40
9446;DHT22;4761;49.490;10.908;2023-04-24T10:41:07;19.30;52.40
9446;DHT22;4761;49.490;10.908;2023-04-24T10:43:33;19.30;52.40
9446;DHT22;4761;49.490;10.908;2023-04-24T10:46:01;19.30;52.40
9446;DHT22;4761;49.490;10.908;2023-04-24T10:48:27;19.30;52.40
9446;DHT22;4761;49.490;10.908;2023-04-24T10:50:53;19.20;52.30
9446;DHT22;4761;49.490;10.908;2023-04-24T10:53:21;19.30;52.20
9446;DHT22;4761;49.490;10.908;2023-04-24T10:55:50;19.20;52.10
9446;DHT22;4761;49.490;10.908;2023-04-24T10:58:22;19.20;52.00
9446;DHT22;4761;49.490;10.908;2023-04-24T11:00:58;19.20;52.00
9446;DHT22;4761;49.490;10.908;2023-04-24T11:03:30;19.30;51.90
9446;DHT22;4761;49.490;10.908;2023-04-24T11:11:13;19.20;51.70
9446;DHT22;4761;49.490;10.908;2023-04-24T11:16:28;19.30;51.80
9446;DHT22;4761;49.490;10.908;2023-04-24T11:22:01;19.20;51.80
9446;DHT22;4761;49.490;10.908;2023-04-24T11:24:40;19.20;51.80
9446;DHT22;4761;49.490;10.908;2023-04-24T11:27:12;19.20;51.80
9446;DHT22;4761;49.490;10.908;2023-04-24T11:32:34;19.20;51.70
9446;DHT22;4761;49.490;10.908;2023-04-24T11:37:36;19.30;51.70
9446;DHT22;4761;49.490;10.908;2023-04-24T11:40:04;19.30;51.70
9446;DHT22;4761;49.490;10.908;2023-04-24T11:42:38;19.30;51.60
9446;DHT22;4761;49.490;10.908;2023-04-24T11:45:11;19.30;51.50
9446;DHT22;4761;49.490;10.908;2023-04-24T11:47:38;19.30;51.50
9446;DHT22;4761;49.490;10.908;2023-04-24T11:50:06;19.30;51.50
9446;DHT22;4761;49.490;10.908;2023-04-24T11:52:32;19.30;51.40
9446;DHT22;4761;49.490;10.908;2023-04-24T11:54:59;19.20;51.30
9446;DHT22;4761;49.490;10.908;2023-04-24T11:57:25;19.20;51.20
9446;DHT22;4761;49.490;10.908;2023-04-24T11:59:59;19.30;51.20
9446;DHT22;4761;49.490;10.908;2023-04-24T12:02:26;19.20;51.10
9446;DHT22;4761;49.490;10.908;2023-04-24T12:04:53;19.20;51.10
9446;DHT22;4761;49.490;10.908;2023-04-24T12:07:19;19.20;51.10
9446;DHT22;4761;49.490;10.908;2023-04-24T12:09:57;19.30;51.20
9446;DHT22;4761;49.490;10.908;2023-04-24T12:12:25;19.20;51.10
9446;DHT22;4761;49.490;10.908;2023-04-24T12:14:56;19.30;51.10
9446;DHT22;4761;49.490;10.908;2023-04-24T12:17:30;19.20;51.00
9446;DHT22;4761;49.490;10.908;2023-04-24T12:20:04;19.20;51.10
9446;DHT22;4761;49.490;10.908;2023-04-24T12:22:46;19.20;51.10
9446;DHT22;4761;49.490;10.908;2023-04-24T12:25:13;19.30;51.10
9446;DHT22;4761;49.490;10.908;2023-04-24T12:27:38;19.20;51.10
9446;DHT22;4761;49.490;10.908;2023-04-24T12:30:05;19.20;51.10
9446;DHT22;4761;49.490;10.908;2023-04-24T12:32:34;19.20;51.10
9446;DHT22;4761;49.490;10.908;2023-04-24T12:35:00;19.30;51.20
9446;DHT22;4761;49.490;10.908;2023-04-24T12:37:31;19.20;51.10
9446;DHT22;4761;49.490;10.908;2023-04-24T12:40:10;19.30;51.20
9446;DHT22;4761;49.490;10.908;2023-04-24T12:42:43;19.30;51.20
9446;DHT22;4761;49.490;10.908;2023-04-24T12:45:09;19.30;51.20
9446;DHT22;4761;49.490;10.908;2023-04-24T12:47:37;19.30;51.10
9446;DHT22;4761;49.490;10.908;2023-04-24T12:50:03;19.30;51.00
9446;DHT22;4761;49.490;10.908;2023-04-24T12:52:30;19.30;51.00
9446;DHT22;4761;49.490;10.908;2023-04-24T12:54:59;19.20;51.00
9446;DHT22;4761;49.490;10.908;2023-04-24T12:57:27;19.20;51.00
9446;DHT22;4761;49.490;10.908;2023-04-24T12:59:57;19.20;51.00
9446;DHT22;4761;49.490;10.908;2023-04-24T13:02:28;19.30;51.10
9446;DHT22;4761;49.490;10.908;2023-04-24T13:04:57;19.30;51.10
9446;DHT22;4761;49.490;10.908;2023-04-24T13:07:22;19.30;51.10
9446;DHT22;4761;49.490;10.908;2023-04-24T13:09:49;19.30;51.10
9446;DHT22;4761;49.490;10.908;2023-04-24T13:12:15;19.30;51.10
9446;DHT22;4761;49.490;10.908;2023-04-24T13:14:41;19.30;51.10
9446;DHT22;4761;49.490;10.908;2023-04-24T13:17:07;19.30;51.00
9446;DHT22;4761;49.490;10.908;2023-04-24T13:19:40;19.30;51.00
9446;DHT22;4761;49.490;10.908;2023-04-24T13:22:06;19.30;51.00
9446;DHT22;4761;49.490;10.908;2023-04-24T13:24:32;19.30;51.00
9446;DHT22;4761;49.490;10.908;2023-04-24T13:26:58;19.20;50.90
9446;DHT22;4761;49.490;10.908;2023-04-24T13:29:24;19.20;51.00
9446;DHT22;4761;49.490;10.908;2023-04-24T13:31:50;19.20;51.00
9446;DHT22;4761;49.490;10.908;2023-04-24T13:34:16;19.20;51.00
9446;DHT22;4761;49.490;10.908;2023-04-24T13:36:42;19.20;51.00
9446;DHT22;4761;49.490;10.908;2023-04-24T13:39:08;19.20;50.80
9446;DHT22;4761;49.490;10.908;2023-04-24T13:41:33;19.20;50.70
9446;DHT22;4761;49.490;10.908;2023-04-24T13:44:00;19.20;50.70
9446;DHT22;4761;49.490;10.908;2023-04-24T13:46:25;19.20;50.70
9446;DHT22;4761;49.490;10.908;2023-04-24T13:48:51;19.20;50.60
9446;DHT22;4761;49.490;10.908;2023-04-24T13:51:17;19.20;50.60
9446;DHT22;4761;49.490;10.908;2023-04-24T13:53:43;19.20;50.50
9446;DHT22;4761;49.490;10.908;2023-04-24T13:56:09;19.30;50.40
9446;DHT22;4761;49.490;10.908;2023-04-24T13:58:35;19.30;50.40
9446;DHT22;4761;49.490;10.908;2023-04-24T14:01:04;19.30;50.30
9446;DHT22;4761;49.490;10.908;2023-04-24T14:03:29;19.30;50.20
9446;DHT22;4761;49.490;10.908;2023-04-24T14:05:55;19.30;50.30
9446;DHT22;4761;49.490;10.908;2023-04-24T14:08:20;19.40;50.40
9446;DHT22;4761;49.490;10.908;2023-04-24T14:10:46;19.40;50.30
9446;DHT22;4761;49.490;10.908;2023-04-24T14:13:12;19.40;50.10
9446;DHT22;4761;49.490;10.908;2023-04-24T14:15:37;19.40;50.10
9446;DHT22;4761;49.490;10.908;2023-04-24T14:18:03;19.40;50.10
9446;DHT22;4761;49.490;10.908;2023-04-24T14:20:29;19.40;50.10
9446;DHT22;4761;49.490;10.908;2023-04-24T14:22:54;19.50;50.20
9446;DHT22;4761;49.490;10.908;2023-04-24T14:25:20;19.50;50.20
9446;DHT22;4761;49.490;10.908;2023-04-24T14:27:47;19.50;50.10
9446;DHT22;4761;49.490;10.908;2023-04-24T14:30:13;19.50;50.10
9446;DHT22;4761;49.490;10.908;2023-04-24T14:32:39;19.40;49.90
9446;DHT22;4761;49.490;10.908;2023-04-24T14:35:06;19.40;49.90
9446;DHT22;4761;49.490;10.908;2023-04-24T14:37:32;19.40;50.00
9446;DHT22;4761;49.490;10.908;2023-04-24T14:39:57;19.40;49.90
9446;DHT22;4761;49.490;10.908;2023-04-24T14:42:23;19.40;49.90
9446;DHT22;4761;49.490;10.908;2023-04-24T14:44:49;19.40;49.90
9446;DHT22;4761;49.490;10.908;2023-04-24T14:47:14;19.40;49.80
9446;DHT22;4761;49.490;10.908;2023-04-24T14:49:42;19.40;49.90
9446;DHT22;4761;49.490;10.908;2023-04-24T14:52:09;19.40;49.90
9446;DHT22;4761;49.490;10.908;2023-04-24T14:54:35;19.40;49.70
9446;DHT22;4761;49.490;10.908;2023-04-24T14:57:00;19.40;49.60
9446;DHT22;4761;49.490;10.908;2023-04-24T14:59:27;19.40;49.30
9446;DHT22;4761;49.490;10.908;2023-04-24T15:01:53;19.30;49.20
9446;DHT22;4761;49.490;10.908;2023-04-24T15:04:25;19.30;49.10
9446;DHT22;4761;49.490;10.908;2023-04-24T15:06:51;19.30;49.10
9446;DHT22;4761;49.490;10.908;2023-04-24T15:09:19;19.30;49.20
9446;DHT22;4761;49.490;10.908;2023-04-24T15:11:44;19.30;49.20
9446;DHT22;4761;49.490;10.908;2023-04-24T15:14:10;19.30;49.20
9446;DHT22;4761;49.490;10.908;2023-04-24T15:16:36;19.30;49.20
9446;DHT22;4761;49.490;10.908;2023-04-24T15:19:01;19.30;49.20
9446;DHT22;4761;49.490;10.908;2023-04-24T15:21:27;19.30;49.20
9446;DHT22;4761;49.490;10.908;2023-04-24T15:23:52;19.30;49.40
9446;DHT22;4761;49.490;10.908;2023-04-24T15:26:18;19.30;49.40
9446;DHT22;4761;49.490;10.908;2023-04-24T15:28:43;19.30;49.50
9446;DHT22;4761;49.490;10.908;2023-04-24T15:31:12;19.40;49.50
9446;DHT22;4761;49.490;10.908;2023-04-24T15:33:37;19.40;49.50
9446;DHT22;4761;49.490;10.908;2023-04-24T15:36:03;19.40;49.50
9446;DHT22;4761;49.490;10.908;2023-04-24T15:38:28;19.40;49.50
9446;DHT22;4761;49.490;10.908;2023-04-24T15:40:54;19.40;49.50
9446;DHT22;4761;49.490;10.908;2023-04-24T15:43:19;19.40;49.50
9446;DHT22;4761;49.490;10.908;2023-04-24T15:45:45;19.40;49.50
9446;DHT22;4761;49.490;10.908;2023-04-24T15:48:10;19.40;49.40
9446;DHT22;4761;49.490;10.908;2023-04-24T15:50:36;19.40;49.40
9446;DHT22;4761;49.490;10.908;2023-04-24T15:53:01;19.40;49.50
9446;DHT22;4761;49.490;10.908;2023-04-24T15:55:27;19.40;49.40
9446;DHT22;4761;49.490;10.908;2023-04-24T15:57:53;19.40;49.50
9446;DHT22;4761;49.490;10.908;2023-04-24T16:00:18;19.40;49.40